Terminal Aerodrome Forecast
Issued by NWS Jackson, MS

Home | Current Version | Previous Version | Text Only | Print | Product List | Glossary On
Versions: 1 2 3 4 5 6 7 8 9 10 11 12
000
FTUS44 KJAN 220520
TAFMEI
TAF
KMEI 220520Z 2206/2306 12007KT P6SM VCSH FEW070
     FM220900 13013KT P6SM VCSH BKN007
     FM221500 16015G22KT 5SM SHRA VCTS BKN007CB OVC020
     FM222100 19013G21KT 4SM -RA BR OVC015
     FM230000 19006KT P6SM OVC050=

USA.gov is the U.S. government's official web portal to all federal, state and local government web resources and services.